createdAt,value
2019-02-26T00:02:32.582Z,6.56
2019-02-26T00:05:41.360Z,6.55
2019-02-26T00:08:51.868Z,6.54
2019-02-26T00:12:00.427Z,6.51
2019-02-26T00:15:10.453Z,6.46
2019-02-26T00:18:29.338Z,6.46
2019-02-26T00:21:37.911Z,6.37
2019-02-26T00:24:46.665Z,6.23
2019-02-26T00:28:06.274Z,6.26
2019-02-26T00:31:14.775Z,6.24
2019-02-26T00:34:23.338Z,6.20
2019-02-26T00:37:31.949Z,6.05
2019-02-26T00:40:41.396Z,5.96
2019-02-26T00:43:53.221Z,5.95
2019-02-26T00:47:02.580Z,6.01
2019-02-26T00:50:14.066Z,5.88
2019-02-26T00:53:23.554Z,5.93
2019-02-26T00:56:33.992Z,5.85
2019-02-26T00:59:44.080Z,5.87
2019-02-26T01:02:53.573Z,5.87
2019-02-26T01:06:04.118Z,5.74
2019-02-26T01:09:15.760Z,5.84
2019-02-26T01:12:24.223Z,5.72
2019-02-26T01:15:43.182Z,5.77
2019-02-26T01:18:53.217Z,5.75
2019-02-26T01:22:01.820Z,5.75
2019-02-26T01:25:13.434Z,5.78
2019-02-26T01:28:24.241Z,5.65
2019-02-26T01:31:33.970Z,5.64
2019-02-26T01:34:52.924Z,5.68
2019-02-26T01:38:01.541Z,5.52
2019-02-26T01:41:13.638Z,5.39
2019-02-26T01:44:23.233Z,5.25
2019-02-26T01:47:31.798Z,5.31
2019-02-26T01:50:52.135Z,5.42
2019-02-26T01:54:00.976Z,5.40
2019-02-26T01:57:09.535Z,5.43
2019-02-26T02:00:18.961Z,5.34
2019-02-26T02:03:28.422Z,5.33
2019-02-26T02:06:39.252Z,5.36
2019-02-26T02:09:50.695Z,5.14
2019-02-26T02:13:00.265Z,5.17
2019-02-26T02:16:09.700Z,5.23
2019-02-26T02:19:30.215Z,5.29
2019-02-26T02:22:37.671Z,5.22
2019-02-26T02:25:47.360Z,5.23
2019-02-26T02:28:55.912Z,5.11
2019-02-26T02:32:07.126Z,5.12
2019-02-26T02:35:17.856Z,5.11
2019-02-26T02:38:25.028Z,5.04
2019-02-26T02:41:45.393Z,5.12
2019-02-26T02:44:54.145Z,5.16
2019-02-26T02:48:03.289Z,5.21
2019-02-26T02:51:22.340Z,5.37
2019-02-26T02:54:30.921Z,5.36
2019-02-26T02:57:39.478Z,5.36
2019-02-26T03:00:51.212Z,5.44
2019-02-26T03:04:01.031Z,5.47
2019-02-26T03:07:08.963Z,5.31
2019-02-26T03:10:17.665Z,5.24
2019-02-26T03:13:28.003Z,5.42
2019-02-26T03:16:36.683Z,5.17
2019-02-26T03:19:45.355Z,5.22
2019-02-26T03:23:06.090Z,5.44
2019-02-26T03:26:15.211Z,5.49
2019-02-26T03:29:24.639Z,5.55
2019-02-26T03:32:36.743Z,5.49
2019-02-26T03:35:43.495Z,5.65
2019-02-26T03:38:54.793Z,5.74
2019-02-26T03:42:02.638Z,5.64
2019-02-26T03:45:13.394Z,5.59
2019-02-26T03:48:21.921Z,5.47
2019-02-26T03:51:30.563Z,5.61
2019-02-26T03:54:40.211Z,5.62
2019-02-26T03:58:02.024Z,5.70
2019-02-26T04:01:10.948Z,5.62
2019-02-26T04:04:20.727Z,5.49
2019-02-26T04:07:33.225Z,5.36
2019-02-26T04:10:40.709Z,5.53
2019-02-26T04:13:51.573Z,5.67
2019-02-26T04:17:01.643Z,5.61
2019-02-26T04:20:11.159Z,5.67
2019-02-26T04:23:36.078Z,5.75
2019-02-26T04:27:44.180Z,5.78
2019-02-26T04:32:01.184Z,5.84
2019-02-26T04:35:47.700Z,5.64
2019-02-26T04:39:45.069Z,5.66
2019-02-26T04:43:55.683Z,5.72
2019-02-26T04:47:30.767Z,5.57
2019-02-26T04:50:41.348Z,5.69
2019-02-26T04:53:51.067Z,5.69
2019-02-26T04:56:59.454Z,5.70
2019-02-26T05:00:18.330Z,5.60
2019-02-26T05:03:26.908Z,5.59
2019-02-26T05:06:35.455Z,5.53
2019-02-26T05:09:44.115Z,5.47
2019-02-26T05:12:56.205Z,5.62
2019-02-26T05:16:02.978Z,5.60
2019-02-26T05:19:13.730Z,5.56
2019-02-26T05:22:33.418Z,5.46
2019-02-26T05:25:44.314Z,5.42
2019-02-26T05:28:52.859Z,5.53
2019-02-26T05:32:03.996Z,5.53
2019-02-26T05:35:14.131Z,5.49
2019-02-26T05:38:24.034Z,5.51
2019-02-26T05:41:34.038Z,5.53
2019-02-26T05:44:42.544Z,5.54
2019-02-26T05:47:53.418Z,5.49
2019-02-26T05:51:03.617Z,5.44
2019-02-26T05:54:24.360Z,5.42
2019-02-26T05:57:32.599Z,5.38
2019-02-26T06:00:40.780Z,5.33
2019-02-26T06:03:51.743Z,5.26
2019-02-26T06:07:02.065Z,5.19
2019-02-26T06:10:10.066Z,5.20
2019-02-26T06:13:34.597Z,4.98
2019-02-26T06:16:43.236Z,4.98
2019-02-26T06:19:52.822Z,5.00
2019-02-26T06:23:12.242Z,5.01
2019-02-26T06:26:22.392Z,4.97
2019-02-26T06:29:32.632Z,4.95
2019-02-26T06:32:42.635Z,4.74
2019-02-26T06:35:52.057Z,4.88
2019-02-26T06:39:11.204Z,4.92
2019-02-26T06:42:19.743Z,4.93
2019-02-26T06:45:28.394Z,4.87
2019-02-26T06:48:37.118Z,4.91
2019-02-26T06:51:47.452Z,4.94
2019-02-26T06:54:58.083Z,4.99
2019-02-26T06:58:27.300Z,5.08
2019-02-26T07:01:37.962Z,5.08
2019-02-26T07:05:00.782Z,5.27
2019-02-26T07:08:12.599Z,5.31
2019-02-26T07:11:21.128Z,5.35
2019-02-26T07:14:30.276Z,5.41
2019-02-26T07:17:41.171Z,5.45
2019-02-26T07:20:52.598Z,5.56
2019-02-26T07:24:01.118Z,5.64
2019-02-26T07:27:11.609Z,5.64
2019-02-26T07:30:21.349Z,5.70
2019-02-26T07:33:40.109Z,5.68
2019-02-26T07:36:50.709Z,5.82
2019-02-26T07:39:59.216Z,5.77
2019-02-26T07:43:09.836Z,5.94
2019-02-26T07:46:19.355Z,6.11
2019-02-26T07:49:28.523Z,6.26
2019-02-26T07:52:37.489Z,6.53
2019-02-26T07:55:46.077Z,7.10
2019-02-26T07:58:59.037Z,7.76
2019-02-26T08:02:06.367Z,8.64
2019-02-26T08:05:17.084Z,9.14
2019-02-26T08:08:26.331Z,9.40
2019-02-26T08:11:36.792Z,9.43
2019-02-26T08:14:47.313Z,9.29
2019-02-26T08:17:58.005Z,9.10
2019-02-26T08:21:05.812Z,9.24
2019-02-26T08:24:14.844Z,9.77
2019-02-26T08:27:23.797Z,10.02
2019-02-26T08:30:32.400Z,9.80
2019-02-26T08:33:41.038Z,9.87
2019-02-26T08:36:49.658Z,10.13
2019-02-26T08:39:58.292Z,10.60
2019-02-26T08:43:17.196Z,11.11
2019-02-26T08:46:25.824Z,11.56
2019-02-26T08:49:35.241Z,12.10
2019-02-26T08:52:47.082Z,12.76
2019-02-26T08:55:56.358Z,13.34
2019-02-26T08:59:05.231Z,13.62
2019-02-26T09:02:13.718Z,13.55
2019-02-26T09:05:34.448Z,13.25
2019-02-26T09:08:55.082Z,12.93
2019-02-26T09:12:04.992Z,12.74
2019-02-26T09:15:15.846Z,12.50
2019-02-26T09:18:27.428Z,12.41
2019-02-26T09:21:36.952Z,12.37
2019-02-26T09:24:44.944Z,12.68
2019-02-26T09:27:55.443Z,13.01
2019-02-26T09:31:06.280Z,13.41
2019-02-26T09:34:14.329Z,13.52
2019-02-26T09:37:22.951Z,13.83
2019-02-26T09:40:41.769Z,13.84
2019-02-26T09:43:50.293Z,14.04
2019-02-26T09:47:00.585Z,14.46
2019-02-26T09:50:12.851Z,15.07
2019-02-26T09:53:21.347Z,15.70
2019-02-26T09:56:30.033Z,16.10
2019-02-26T09:59:38.712Z,16.73
2019-02-26T10:02:47.156Z,17.23
2019-02-26T10:05:57.878Z,17.76
2019-02-26T10:09:10.684Z,18.04
2019-02-26T10:12:18.779Z,18.34
2019-02-26T10:15:27.350Z,18.41
2019-02-26T10:18:35.984Z,18.13
2019-02-26T10:21:44.947Z,18.38
2019-02-26T10:24:53.617Z,18.42
2019-02-26T10:28:05.809Z,18.19
2019-02-26T10:31:12.634Z,18.05
2019-02-26T10:34:31.491Z,17.80
2019-02-26T10:37:51.616Z,17.26
2019-02-26T10:41:01.839Z,17.40
2019-02-26T10:44:10.383Z,17.49
2019-02-26T10:47:20.106Z,17.59
2019-02-26T10:50:42.286Z,17.86
2019-02-26T10:53:49.283Z,18.36
2019-02-26T10:57:00.135Z,18.61
2019-02-26T11:00:14.165Z,18.83
2019-02-26T11:03:43.437Z,19.02
2019-02-26T11:06:49.480Z,19.02
2019-02-26T11:09:58.881Z,19.15
2019-02-26T11:13:08.528Z,19.34
2019-02-26T11:16:22.929Z,20.59
2019-02-26T11:19:32.164Z,20.76
2019-02-26T11:22:41.639Z,21.30
2019-02-26T11:25:58.401Z,21.87
2019-02-26T11:29:07.107Z,22.07
2019-02-26T11:32:15.758Z,22.28
2019-02-26T11:35:27.150Z,23.03
2019-02-26T11:38:39.029Z,23.69
2019-02-26T11:41:48.280Z,23.43
2019-02-26T11:44:58.074Z,23.52
2019-02-26T11:48:17.759Z,24.31
2019-02-26T11:51:36.654Z,25.00
2019-02-26T11:54:40.214Z,24.97
2019-02-26T11:57:49.827Z,25.91
2019-02-26T12:01:00.312Z,26.61
2019-02-26T12:04:11.308Z,25.53
2019-02-26T12:07:19.952Z,25.22
2019-02-26T12:10:40.475Z,24.91
2019-02-26T12:13:50.234Z,26.09
2019-02-26T12:16:59.564Z,27.46
2019-02-26T12:20:12.119Z,28.15
2019-02-26T12:23:34.328Z,28.01
2019-02-26T12:26:45.268Z,27.91
2019-02-26T12:29:54.570Z,27.87
2019-02-26T12:33:03.396Z,27.15
2019-02-26T12:36:12.003Z,27.57
2019-02-26T12:39:22.239Z,28.70
2019-02-26T12:42:40.691Z,28.02
2019-02-26T12:45:49.287Z,28.15
2019-02-26T12:48:57.874Z,28.53
2019-02-26T12:52:06.493Z,27.53
2019-02-26T12:55:15.788Z,27.71
2019-02-26T12:58:27.608Z,27.48
2019-02-26T13:01:36.213Z,28.48
2019-02-26T13:04:47.241Z,27.60
2019-02-26T13:07:55.229Z,28.27
2019-02-26T13:11:03.926Z,28.07
2019-02-26T13:14:12.505Z,27.27
2019-02-26T13:17:26.139Z,27.97
2019-02-26T13:20:41.658Z,28.04
2019-02-26T13:23:50.282Z,28.40
2019-02-26T13:26:59.676Z,28.65
2019-02-26T13:30:11.699Z,28.44
2019-02-26T13:33:35.177Z,28.68
2019-02-26T13:36:43.642Z,28.53
2019-02-26T13:39:51.289Z,27.28
2019-02-26T13:46:19.663Z,27.46
2019-02-26T13:49:28.151Z,27.82
2019-02-26T13:52:36.789Z,27.70
2019-02-26T13:55:45.170Z,28.04
2019-02-26T13:58:53.617Z,27.30
2019-02-26T14:02:12.665Z,27.18
2019-02-26T14:05:21.286Z,27.14
2019-02-26T14:08:29.943Z,27.00
2019-02-26T14:11:38.553Z,26.66
2019-02-26T14:14:47.208Z,25.85
2019-02-26T14:17:55.790Z,25.12
2019-02-26T14:21:04.328Z,24.14
2019-02-26T14:24:31.081Z,23.00
2019-02-26T14:27:38.367Z,21.98
2019-02-26T14:30:46.694Z,21.20
2019-02-26T14:33:55.360Z,20.46
2019-02-26T14:37:05.734Z,20.11
2019-02-26T14:40:16.147Z,19.82
2019-02-26T14:43:24.974Z,19.50
2019-02-26T14:46:33.573Z,19.00
2019-02-26T14:49:42.190Z,18.83
2019-02-26T14:53:01.010Z,18.42
2019-02-26T14:56:09.609Z,18.29
2019-02-26T14:59:18.209Z,18.32
2019-02-26T15:02:26.823Z,18.14
2019-02-26T15:05:35.321Z,17.91
2019-02-26T15:08:44.035Z,17.49
2019-02-26T15:11:52.623Z,17.27
2019-02-26T15:15:12.053Z,17.16
2019-02-26T15:18:31.121Z,17.26
2019-02-26T15:21:39.726Z,17.23
2019-02-26T15:24:48.534Z,17.04
2019-02-26T15:28:04.607Z,16.96
2019-02-26T15:31:07.383Z,16.61
2019-02-26T15:34:16.014Z,16.62
2019-02-26T15:37:24.637Z,16.54
2019-02-26T15:40:33.662Z,16.38
2019-02-26T15:43:42.247Z,16.06
2019-02-26T15:46:51.355Z,16.01
2019-02-26T15:50:00.007Z,16.11
2019-02-26T15:53:08.542Z,15.91
2019-02-26T15:56:17.131Z,15.85
2019-02-26T15:59:36.210Z,15.78
2019-02-26T16:02:44.777Z,15.78
2019-02-26T16:05:54.053Z,15.57
2019-02-26T16:09:14.850Z,15.53
2019-02-26T16:12:24.497Z,15.21
2019-02-26T16:15:34.689Z,15.09
2019-02-26T16:18:43.322Z,14.93
2019-02-26T16:21:51.909Z,14.79
2019-02-26T16:25:10.766Z,14.58
2019-02-26T16:28:19.257Z,14.52
2019-02-26T16:31:29.933Z,14.55
2019-02-26T16:34:38.148Z,14.55
2019-02-26T16:37:46.863Z,14.53
2019-02-26T16:40:55.444Z,14.34
2019-02-26T16:44:04.087Z,14.33
2019-02-26T16:47:22.874Z,14.24
2019-02-26T16:50:32.167Z,14.16
2019-02-26T16:53:51.067Z,14.15
2019-02-26T16:56:59.651Z,14.03
2019-02-26T17:00:12.896Z,13.94
2019-02-26T17:03:21.349Z,13.83
2019-02-26T17:06:29.973Z,13.74
2019-02-26T17:09:48.934Z,13.54
2019-02-26T17:13:01.857Z,13.41
2019-02-26T17:16:07.732Z,13.37
2019-02-26T17:19:16.352Z,13.24
2019-02-26T17:22:25.015Z,13.17
2019-02-26T17:25:33.899Z,13.06
2019-02-26T17:28:44.148Z,12.96
2019-02-26T17:31:52.918Z,12.91
2019-02-26T17:35:01.447Z,12.79
2019-02-26T17:38:20.206Z,12.57
2019-02-26T17:41:28.699Z,12.48
2019-02-26T17:44:37.301Z,12.41
2019-02-26T17:47:45.921Z,12.28
2019-02-26T17:50:54.521Z,12.18
2019-02-26T17:54:04.129Z,12.13
2019-02-26T17:57:23.578Z,12.16
2019-02-26T18:00:36.206Z,12.08
2019-02-26T18:03:59.829Z,12.03
2019-02-26T18:07:08.496Z,11.88
2019-02-26T18:10:18.233Z,11.85
2019-02-26T18:13:26.766Z,11.75
2019-02-26T18:16:45.657Z,11.66
2019-02-26T18:19:54.165Z,11.58
2019-02-26T18:23:02.726Z,11.48
2019-02-26T18:26:11.339Z,11.27
2019-02-26T18:29:19.922Z,11.17
2019-02-26T18:32:28.632Z,11.11
2019-02-26T18:35:37.219Z,10.99
2019-02-26T18:38:56.143Z,10.97
2019-02-26T18:42:07.550Z,10.72
2019-02-26T18:45:18.487Z,10.66
2019-02-26T18:48:27.041Z,10.66
2019-02-26T18:51:36.557Z,10.60
2019-02-26T18:54:45.695Z,10.51
2019-02-26T18:57:54.501Z,10.45
2019-02-26T19:01:03.185Z,10.38
2019-02-26T19:04:23.725Z,10.33
2019-02-26T19:07:33.844Z,10.17
2019-02-26T19:10:42.511Z,10.07
2019-02-26T19:13:51.097Z,10.01
2019-02-26T19:16:59.602Z,9.86
2019-02-26T19:20:12.758Z,9.80
2019-02-26T19:23:20.609Z,9.70
2019-02-26T19:26:29.168Z,9.65
2019-02-26T19:29:37.671Z,9.60
2019-02-26T19:32:56.476Z,9.54
2019-02-26T19:36:05.131Z,9.48
2019-02-26T19:39:13.777Z,9.41
2019-02-26T19:42:22.478Z,9.33
2019-02-26T19:45:32.897Z,9.28
2019-02-26T19:48:41.372Z,9.23
2019-02-26T19:51:50.062Z,9.23
2019-02-26T19:54:58.634Z,9.16
2019-02-26T19:58:17.503Z,9.14
2019-02-26T20:01:26.508Z,8.99
2019-02-26T20:04:38.417Z,8.89
2019-02-26T20:07:45.402Z,8.85
2019-02-26T20:10:54.135Z,8.78
2019-02-26T20:14:04.855Z,8.74
2019-02-26T20:17:14.820Z,8.74
2019-02-26T20:20:23.231Z,8.73
2019-02-26T20:23:31.730Z,8.66
2019-02-26T20:26:50.513Z,8.63
2019-02-26T20:29:59.193Z,8.40
2019-02-26T20:33:07.744Z,8.39
2019-02-26T20:36:17.831Z,8.37
2019-02-26T20:39:27.789Z,8.28
2019-02-26T20:42:37.246Z,8.26
2019-02-26T20:45:45.434Z,8.20
2019-02-26T20:48:53.824Z,8.20
2019-02-26T20:52:02.567Z,8.19
2019-02-26T20:55:13.529Z,8.13
2019-02-26T20:58:32.314Z,8.09
2019-02-26T21:01:43.019Z,8.00
2019-02-26T21:04:51.028Z,7.78
2019-02-26T21:07:59.746Z,7.71
2019-02-26T21:11:08.331Z,7.74
2019-02-26T21:14:16.811Z,7.74
2019-02-26T21:17:35.598Z,7.64
2019-02-26T21:20:44.068Z,7.57
2019-02-26T21:23:52.641Z,7.60
2019-02-26T21:27:01.094Z,7.57
2019-02-26T21:30:19.958Z,7.61
2019-02-26T21:33:30.625Z,7.53
2019-02-26T21:36:38.582Z,7.52
2019-02-26T21:39:47.143Z,7.48
2019-02-26T21:42:55.620Z,7.38
2019-02-26T21:46:14.275Z,7.36
2019-02-26T21:49:22.785Z,7.31
2019-02-26T21:52:31.272Z,7.32
2019-02-26T21:55:44.282Z,7.29
2019-02-26T21:58:50.100Z,7.20
2019-02-26T22:02:08.905Z,7.19
2019-02-26T22:05:17.484Z,7.15
2019-02-26T22:08:26.108Z,7.13
2019-02-26T22:11:34.575Z,7.12
2019-02-26T22:14:43.026Z,7.07
2019-02-26T22:18:02.091Z,7.06
2019-02-26T22:21:12.079Z,6.99
2019-02-26T22:24:20.616Z,6.91
2019-02-26T22:27:29.163Z,6.90
2019-02-26T22:30:37.615Z,6.91
2019-02-26T22:33:56.426Z,6.90
2019-02-26T22:37:07.403Z,6.86
2019-02-26T22:40:15.283Z,6.86
2019-02-26T22:43:23.859Z,6.84
2019-02-26T22:46:33.832Z,6.76
2019-02-26T22:49:42.869Z,6.72
2019-02-26T22:52:51.490Z,6.67
2019-02-26T22:56:00.111Z,6.69
2019-02-26T22:59:19.120Z,6.71
2019-02-26T23:02:28.426Z,6.58
2019-02-26T23:05:47.156Z,6.63
2019-02-26T23:08:55.718Z,6.55
2019-02-26T23:12:05.059Z,6.53
2019-02-26T23:15:14.435Z,6.55
2019-02-26T23:18:23.410Z,6.46
2019-02-26T23:21:32.588Z,6.35
2019-02-26T23:24:41.633Z,6.37
2019-02-26T23:27:50.196Z,6.28
2019-02-26T23:30:59.862Z,6.32
2019-02-26T23:34:09.008Z,6.26
2019-02-26T23:37:17.566Z,6.25
2019-02-26T23:40:27.490Z,6.23
2019-02-26T23:43:36.504Z,6.18
2019-02-26T23:46:55.402Z,6.18
2019-02-26T23:50:03.940Z,6.09
2019-02-26T23:53:12.526Z,5.95
2019-02-26T23:56:21.149Z,5.92
2019-02-26T23:59:29.814Z,5.88
